createdAt,value
2018-05-23T00:01:03.386Z,20.90
2018-05-23T00:03:30.840Z,20.90
2018-05-23T00:05:58.302Z,20.90
2018-05-23T00:08:25.788Z,20.90
2018-05-23T00:10:53.242Z,20.80
2018-05-23T00:13:20.716Z,20.80
2018-05-23T00:15:48.928Z,20.80
2018-05-23T00:18:16.372Z,20.80
2018-05-23T00:20:43.831Z,20.80
2018-05-23T00:23:12.043Z,20.70
2018-05-23T00:25:39.506Z,20.60
2018-05-23T00:28:06.949Z,20.70
2018-05-23T00:30:35.171Z,20.50
2018-05-23T00:33:02.611Z,20.50
2018-05-23T00:35:30.824Z,20.50
2018-05-23T00:37:58.273Z,20.50
2018-05-23T00:40:26.510Z,20.50
2018-05-23T00:42:53.962Z,20.50
2018-05-23T00:45:22.262Z,20.60
2018-05-23T00:47:52.548Z,20.50
2018-05-23T00:50:20.755Z,20.40
2018-05-23T00:52:48.204Z,20.40
2018-05-23T00:55:28.265Z,20.50
2018-05-23T00:57:56.503Z,20.40
2018-05-23T01:00:23.975Z,20.40
2018-05-23T01:02:51.443Z,20.40
2018-05-23T01:05:18.879Z,20.40
2018-05-23T01:07:46.354Z,20.40
2018-05-23T01:10:13.799Z,20.40
2018-05-23T01:12:42.025Z,20.40
2018-05-23T01:15:09.479Z,20.40
2018-05-23T01:17:36.919Z,20.40
2018-05-23T01:20:05.166Z,20.40
2018-05-23T01:22:32.627Z,20.30
2018-05-23T01:25:00.094Z,20.30
2018-05-23T01:27:27.547Z,20.40
2018-05-23T01:29:55.032Z,20.40
2018-05-23T01:32:22.507Z,20.30
2018-05-23T01:34:49.966Z,20.30
2018-05-23T01:37:17.433Z,20.30
2018-05-23T01:39:44.886Z,20.30
2018-05-23T01:42:12.459Z,20.30
2018-05-23T01:44:40.438Z,20.30
2018-05-23T01:47:08.693Z,20.30
2018-05-23T01:49:36.138Z,20.20
2018-05-23T01:52:03.584Z,20.20
2018-05-23T01:54:31.060Z,20.20
2018-05-23T01:56:58.518Z,20.20
2018-05-23T01:59:26.485Z,20.10
2018-05-23T02:01:54.746Z,20.10
2018-05-23T02:04:22.192Z,20.10
2018-05-23T02:06:49.667Z,20.10
2018-05-23T02:09:17.147Z,20.10
2018-05-23T02:11:44.615Z,20.10
2018-05-23T02:14:12.076Z,20.10
2018-05-23T02:16:39.538Z,20.10
2018-05-23T02:19:06.993Z,20.10
2018-05-23T02:21:34.453Z,20.00
2018-05-23T02:24:01.931Z,20.00
2018-05-23T02:26:29.394Z,20.00
2018-05-23T02:28:56.860Z,20.00
2018-05-23T02:31:24.305Z,20.00
2018-05-23T02:33:51.764Z,20.00
2018-05-23T02:36:20.010Z,19.90
2018-05-23T02:38:47.473Z,19.80
2018-05-23T02:41:14.929Z,19.80
2018-05-23T02:43:42.386Z,19.80
2018-05-23T02:46:15.604Z,19.80
2018-05-23T02:48:43.063Z,19.80
2018-05-23T02:51:10.530Z,19.80
2018-05-23T02:53:37.993Z,19.80
2018-05-23T02:56:05.466Z,19.80
2018-05-23T02:58:32.921Z,19.80
2018-05-23T03:01:00.379Z,19.70
2018-05-23T03:03:27.839Z,19.70
2018-05-23T03:05:56.060Z,19.60
2018-05-23T03:08:23.512Z,19.60
2018-05-23T03:10:50.986Z,19.60
2018-05-23T03:13:18.441Z,19.60
2018-05-23T03:15:46.674Z,19.60
2018-05-23T03:18:14.160Z,19.60
2018-05-23T03:20:41.626Z,19.60
2018-05-23T03:23:09.086Z,19.60
2018-05-23T03:25:36.551Z,19.60
2018-05-23T03:28:04.011Z,19.60
2018-05-23T03:30:31.645Z,19.60
2018-05-23T03:32:59.871Z,19.60
2018-05-23T03:35:27.333Z,19.50
2018-05-23T03:37:54.784Z,19.60
2018-05-23T03:40:22.223Z,19.60
2018-05-23T03:42:49.679Z,19.60
2018-05-23T03:45:17.127Z,19.50
2018-05-23T03:47:44.603Z,19.50
2018-05-23T03:50:12.069Z,19.50
2018-05-23T03:52:39.539Z,19.40
2018-05-23T03:55:06.981Z,19.50
2018-05-23T03:57:34.444Z,19.40
2018-05-23T04:00:13.735Z,19.40
2018-05-23T04:02:53.059Z,19.50
2018-05-23T04:05:32.590Z,19.40
2018-05-23T04:08:00.074Z,19.50
2018-05-23T04:10:27.536Z,19.50
2018-05-23T04:12:54.989Z,19.40
2018-05-23T04:15:22.525Z,19.40
2018-05-23T04:17:50.689Z,19.50
2018-05-23T04:20:18.161Z,19.50
2018-05-23T04:22:45.626Z,19.50
2018-05-23T04:25:13.102Z,19.60
2018-05-23T04:27:40.554Z,19.60
2018-05-23T04:30:08.000Z,19.60
2018-05-23T04:32:35.471Z,19.60
2018-05-23T04:35:02.955Z,19.70
2018-05-23T04:37:30.424Z,19.80
2018-05-23T04:39:57.886Z,19.80
2018-05-23T04:42:25.357Z,19.80
2018-05-23T04:44:52.813Z,19.80
2018-05-23T04:47:20.279Z,19.90
2018-05-23T04:49:47.779Z,19.90
2018-05-23T04:52:15.971Z,20.00
2018-05-23T04:54:43.416Z,20.00
2018-05-23T04:57:10.872Z,20.10
2018-05-23T04:59:38.332Z,20.20
2018-05-23T05:02:06.591Z,20.30
2018-05-23T05:04:34.058Z,20.20
2018-05-23T05:07:01.535Z,20.30
2018-05-23T05:09:28.992Z,20.30
2018-05-23T05:11:56.457Z,20.30
2018-05-23T05:14:23.935Z,20.30
2018-05-23T05:16:51.380Z,20.40
2018-05-23T05:19:18.845Z,20.40
2018-05-23T05:21:46.319Z,20.50
2018-05-23T05:24:13.785Z,20.60
2018-05-23T05:26:41.232Z,20.70
2018-05-23T05:29:08.688Z,20.70
2018-05-23T05:31:36.159Z,20.80
2018-05-23T05:34:04.387Z,21.00
2018-05-23T05:36:31.904Z,21.00
2018-05-23T05:38:59.302Z,21.10
2018-05-23T05:41:26.768Z,21.10
2018-05-23T05:43:54.220Z,21.20
2018-05-23T05:46:21.694Z,21.30
2018-05-23T05:48:49.156Z,21.40
2018-05-23T05:51:17.401Z,21.60
2018-05-23T05:53:44.873Z,21.60
2018-05-23T05:56:12.338Z,21.60
2018-05-23T05:58:40.545Z,21.70
2018-05-23T06:01:08.026Z,21.70
2018-05-23T06:03:36.244Z,21.90
2018-05-23T06:06:03.718Z,21.90
2018-05-23T06:08:31.174Z,22.00
2018-05-23T06:10:58.637Z,22.00
2018-05-23T06:13:26.867Z,22.00
2018-05-23T06:15:54.338Z,22.00
2018-05-23T06:18:21.788Z,22.10
2018-05-23T06:20:49.240Z,22.10
2018-05-23T06:23:16.722Z,22.20
2018-05-23T06:25:44.171Z,22.30
2018-05-23T06:28:11.635Z,22.40
2018-05-23T06:30:39.851Z,22.60
2018-05-23T06:33:07.307Z,22.50
2018-05-23T06:35:34.756Z,22.60
2018-05-23T06:38:02.996Z,22.90
2018-05-23T06:40:30.453Z,22.90
2018-05-23T06:42:57.934Z,23.00
2018-05-23T06:45:25.397Z,23.10
2018-05-23T06:47:52.873Z,23.20
2018-05-23T06:50:20.336Z,23.30
2018-05-23T06:52:47.811Z,23.40
2018-05-23T06:55:15.283Z,23.40
2018-05-23T06:57:42.724Z,23.50
2018-05-23T07:00:10.195Z,23.70
2018-05-23T07:02:37.677Z,23.70
2018-05-23T07:05:05.132Z,23.70
2018-05-23T07:07:32.611Z,23.50
2018-05-23T07:10:00.064Z,23.50
2018-05-23T07:12:27.551Z,23.70
2018-05-23T07:14:55.024Z,23.70
2018-05-23T07:17:22.489Z,23.80
2018-05-23T07:19:49.954Z,23.90
2018-05-23T07:22:17.404Z,23.90
2018-05-23T07:24:44.861Z,23.90
2018-05-23T07:27:13.131Z,23.80
2018-05-23T07:29:40.592Z,23.80
2018-05-23T07:32:08.056Z,23.90
2018-05-23T07:34:35.537Z,24.10
2018-05-23T07:37:03.007Z,24.40
2018-05-23T07:39:30.458Z,24.50
2018-05-23T07:41:57.938Z,24.60
2018-05-23T07:44:25.404Z,24.50
2018-05-23T07:46:52.899Z,24.50
2018-05-23T07:49:21.127Z,24.70
2018-05-23T07:51:48.590Z,24.70
2018-05-23T07:54:16.044Z,24.80
2018-05-23T07:56:43.567Z,24.80
2018-05-23T07:59:10.982Z,24.80
2018-05-23T08:01:38.435Z,24.80
2018-05-23T08:04:06.671Z,25.10
2018-05-23T08:06:34.142Z,25.10
2018-05-23T08:09:01.615Z,25.30
2018-05-23T08:11:29.075Z,25.40
2018-05-23T08:13:56.583Z,25.50
2018-05-23T08:16:24.002Z,25.60
2018-05-23T08:18:51.456Z,25.50
2018-05-23T08:21:18.906Z,25.80
2018-05-23T08:23:47.115Z,26.10
2018-05-23T08:26:14.568Z,26.10
2018-05-23T08:28:42.793Z,26.40
2018-05-23T08:31:10.263Z,26.30
2018-05-23T08:33:37.720Z,26.30
2018-05-23T08:36:05.178Z,26.30
2018-05-23T08:38:32.615Z,26.20
2018-05-23T08:41:00.860Z,26.30
2018-05-23T08:43:28.304Z,26.30
2018-05-23T08:45:55.813Z,26.30
2018-05-23T08:48:23.980Z,26.10
2018-05-23T08:50:51.450Z,26.10
2018-05-23T08:53:18.896Z,26.20
2018-05-23T08:55:46.366Z,26.30
2018-05-23T08:58:13.846Z,26.30
2018-05-23T09:00:41.292Z,26.30
2018-05-23T09:03:09.513Z,26.30
2018-05-23T09:05:36.986Z,26.30
2018-05-23T09:08:04.442Z,26.20
2018-05-23T09:10:31.927Z,26.10
2018-05-23T09:12:59.385Z,26.10
2018-05-23T09:15:26.840Z,26.10
2018-05-23T09:17:54.306Z,26.00
2018-05-23T09:20:21.754Z,26.10
2018-05-23T09:22:49.991Z,26.60
2018-05-23T09:25:17.483Z,26.60
2018-05-23T09:27:44.904Z,26.90
2018-05-23T09:30:12.351Z,27.20
2018-05-23T09:32:40.607Z,27.70
2018-05-23T09:35:08.056Z,27.60
2018-05-23T09:37:35.523Z,27.60
2018-05-23T09:40:02.972Z,27.60
2018-05-23T09:42:30.447Z,27.60
2018-05-23T09:44:57.919Z,27.70
2018-05-23T09:47:25.380Z,27.90
2018-05-23T09:49:52.836Z,28.20
2018-05-23T09:52:20.300Z,28.30
2018-05-23T09:54:48.542Z,28.20
2018-05-23T09:57:15.995Z,28.20
2018-05-23T09:59:43.454Z,28.10
2018-05-23T10:02:10.900Z,28.00
2018-05-23T10:04:38.368Z,27.90
2018-05-23T10:07:06.584Z,28.20
2018-05-23T10:09:34.031Z,28.20
2018-05-23T10:12:01.512Z,28.20
2018-05-23T10:14:28.963Z,28.20
2018-05-23T10:16:57.185Z,28.10
2018-05-23T10:19:24.688Z,28.10
2018-05-23T10:21:52.144Z,28.20
2018-05-23T10:24:19.602Z,28.20
2018-05-23T10:26:47.061Z,28.10
2018-05-23T10:29:14.535Z,28.10
2018-05-23T10:31:41.998Z,28.30
2018-05-23T10:34:09.440Z,28.40
2018-05-23T10:36:36.919Z,28.40
2018-05-23T10:39:05.350Z,28.50
2018-05-23T10:41:33.527Z,28.70
2018-05-23T10:44:00.994Z,28.60
2018-05-23T10:46:28.493Z,28.80
2018-05-23T10:48:55.928Z,28.90
2018-05-23T10:51:23.394Z,29.10
2018-05-23T10:53:50.856Z,28.90
2018-05-23T10:56:18.318Z,28.90
2018-05-23T10:58:45.780Z,28.80
2018-05-23T11:01:13.341Z,28.60
2018-05-23T11:03:41.828Z,28.80
2018-05-23T11:06:10.033Z,29.00
2018-05-23T11:08:37.515Z,28.90
2018-05-23T11:11:04.974Z,29.10
2018-05-23T11:13:32.434Z,29.40
2018-05-23T11:15:59.888Z,29.40
2018-05-23T11:18:28.100Z,29.40
2018-05-23T11:20:55.573Z,29.40
2018-05-23T11:23:23.029Z,29.40
2018-05-23T11:25:50.468Z,29.30
2018-05-23T11:28:18.734Z,29.30
2018-05-23T11:30:46.195Z,29.30
2018-05-23T11:33:13.635Z,29.60
2018-05-23T11:35:41.096Z,29.70
2018-05-23T11:38:08.555Z,29.80
2018-05-23T11:40:36.020Z,29.80
2018-05-23T11:43:04.252Z,29.50
2018-05-23T11:45:31.712Z,29.50
2018-05-23T11:47:59.161Z,29.20
2018-05-23T11:50:27.461Z,29.20
2018-05-23T11:52:54.936Z,29.20
2018-05-23T11:55:22.376Z,29.20
2018-05-23T11:57:49.827Z,29.10
2018-05-23T12:00:18.063Z,29.00
2018-05-23T12:02:45.531Z,29.00
2018-05-23T12:05:13.004Z,28.80
2018-05-23T12:07:40.444Z,28.70
2018-05-23T12:10:07.903Z,28.60
2018-05-23T12:12:36.117Z,28.20
2018-05-23T12:15:03.568Z,28.20
2018-05-23T12:17:31.048Z,28.20
2018-05-23T12:19:58.532Z,28.00
2018-05-23T12:22:26.005Z,28.00
2018-05-23T12:24:53.453Z,28.10
2018-05-23T12:27:20.912Z,28.20
2018-05-23T12:29:49.129Z,28.10
2018-05-23T12:32:16.589Z,28.00
2018-05-23T12:34:44.033Z,27.90
2018-05-23T12:37:12.249Z,27.70
2018-05-23T12:39:39.727Z,27.70
2018-05-23T12:42:07.177Z,27.70
2018-05-23T12:44:34.647Z,27.60
2018-05-23T12:47:02.097Z,27.70
2018-05-23T12:49:30.330Z,27.70
2018-05-23T12:51:58.072Z,27.70
2018-05-23T12:54:25.516Z,27.60
2018-05-23T12:56:52.961Z,27.80
2018-05-23T12:59:20.426Z,28.00
2018-05-23T13:01:47.865Z,28.10
2018-05-23T13:04:15.325Z,28.20
2018-05-23T13:06:42.795Z,28.30
2018-05-23T13:09:10.245Z,28.40
2018-05-23T13:11:38.456Z,28.90
2018-05-23T13:14:05.911Z,28.90
2018-05-23T13:16:33.370Z,28.90
2018-05-23T13:19:01.595Z,29.10
2018-05-23T13:21:29.071Z,29.10
2018-05-23T13:23:56.524Z,29.20
2018-05-23T13:26:23.987Z,29.20
2018-05-23T13:28:51.444Z,29.30
2018-05-23T13:31:18.899Z,29.40
2018-05-23T13:33:47.125Z,30.20
2018-05-23T13:36:14.586Z,30.10
2018-05-23T13:38:42.040Z,30.60
2018-05-23T13:41:09.520Z,31.40
2018-05-23T13:43:36.980Z,32.30
2018-05-23T13:46:04.413Z,33.00
2018-05-23T13:48:31.882Z,33.80
2018-05-23T13:50:59.329Z,34.20
2018-05-23T13:53:26.779Z,34.40
2018-05-23T13:55:54.241Z,34.40
2018-05-23T13:58:21.711Z,34.20
2018-05-23T14:00:49.179Z,34.70
2018-05-23T14:03:16.628Z,34.90
2018-05-23T14:05:44.095Z,35.50
2018-05-23T14:08:11.541Z,35.80
2018-05-23T14:10:38.988Z,35.80
2018-05-23T14:13:06.435Z,35.90
2018-05-23T14:15:33.912Z,36.50
2018-05-23T14:18:01.380Z,36.80
2018-05-23T14:20:28.854Z,37.00
2018-05-23T14:22:56.323Z,37.20
2018-05-23T14:25:23.790Z,37.30
2018-05-23T14:27:51.256Z,37.50
2018-05-23T14:30:18.719Z,37.00
2018-05-23T14:32:46.168Z,37.00
2018-05-23T14:35:13.670Z,37.60
2018-05-23T14:37:41.132Z,38.50
2018-05-23T14:40:08.609Z,39.10
2018-05-23T14:42:36.098Z,39.90
2018-05-23T14:45:03.567Z,40.50
2018-05-23T14:47:31.021Z,41.40
2018-05-23T14:49:58.562Z,42.00
2018-05-23T14:52:26.970Z,42.30
2018-05-23T14:54:54.472Z,42.60
2018-05-23T14:57:21.947Z,42.70
2018-05-23T14:59:49.422Z,42.90
2018-05-23T15:02:16.870Z,43.30
2018-05-23T15:04:44.316Z,43.20
2018-05-23T15:07:11.783Z,43.10
2018-05-23T15:09:39.233Z,43.20
2018-05-23T15:12:06.691Z,42.80
2018-05-23T15:14:34.151Z,42.70
2018-05-23T15:17:02.372Z,42.30
2018-05-23T15:19:29.851Z,42.30
2018-05-23T15:21:57.315Z,42.40
2018-05-23T15:24:24.778Z,42.60
2018-05-23T15:26:52.243Z,42.90
2018-05-23T15:29:19.699Z,43.20
2018-05-23T15:31:47.166Z,43.20
2018-05-23T15:34:14.622Z,42.90
2018-05-23T15:36:42.857Z,42.60
2018-05-23T15:39:10.308Z,42.60
2018-05-23T15:41:37.832Z,42.60
2018-05-23T15:44:05.231Z,42.50
2018-05-23T15:46:32.680Z,42.80
2018-05-23T15:49:00.911Z,42.50
2018-05-23T15:51:28.373Z,42.50
2018-05-23T15:53:55.847Z,42.20
2018-05-23T15:56:23.294Z,42.20
2018-05-23T15:58:50.738Z,42.00
2018-05-23T16:01:18.953Z,42.50
2018-05-23T16:03:46.415Z,42.40
2018-05-23T16:06:14.632Z,42.50
2018-05-23T16:08:42.092Z,42.50
2018-05-23T16:11:09.547Z,41.40
2018-05-23T16:13:37.024Z,41.60
2018-05-23T16:16:04.479Z,41.70
2018-05-23T16:18:31.955Z,41.50
2018-05-23T16:20:59.410Z,41.50
2018-05-23T16:23:27.627Z,41.40
2018-05-23T16:25:55.082Z,41.40
2018-05-23T16:28:22.550Z,41.50
2018-05-23T16:30:50.002Z,41.60
2018-05-23T16:33:18.238Z,41.60
2018-05-23T16:35:45.707Z,41.60
2018-05-23T16:38:13.217Z,41.20
2018-05-23T16:40:40.674Z,41.10
2018-05-23T16:43:08.116Z,41.10
2018-05-23T16:45:35.588Z,41.10
2018-05-23T16:48:03.046Z,41.20
2018-05-23T16:50:30.515Z,41.40
2018-05-23T16:52:57.978Z,41.60
2018-05-23T16:55:25.427Z,41.90
2018-05-23T16:57:52.901Z,41.50
2018-05-23T17:00:20.365Z,41.30
2018-05-23T17:02:47.825Z,41.40
2018-05-23T17:05:16.037Z,41.20
2018-05-23T17:07:43.507Z,41.20
2018-05-23T17:10:10.979Z,40.60
2018-05-23T17:12:38.451Z,40.60
2018-05-23T17:15:05.909Z,40.50
2018-05-23T17:17:33.381Z,40.70
2018-05-23T17:20:00.941Z,40.60
2018-05-23T17:22:28.496Z,40.60
2018-05-23T17:24:56.702Z,40.40
2018-05-23T17:27:24.167Z,40.30
2018-05-23T17:29:52.360Z,40.10
2018-05-23T17:32:19.808Z,40.10
2018-05-23T17:34:48.036Z,40.00
2018-05-23T17:37:15.489Z,39.90
2018-05-23T17:39:42.951Z,39.40
2018-05-23T17:42:10.410Z,38.40
2018-05-23T17:44:38.637Z,36.80
2018-05-23T17:47:06.096Z,36.70
2018-05-23T17:49:33.574Z,35.90
2018-05-23T17:52:01.031Z,35.00
2018-05-23T17:54:28.484Z,34.10
2018-05-23T17:56:55.985Z,33.30
2018-05-23T17:59:24.139Z,32.40
2018-05-23T18:01:51.635Z,32.40
2018-05-23T18:04:19.084Z,32.00
2018-05-23T18:06:46.525Z,31.60
2018-05-23T18:09:14.749Z,30.60
2018-05-23T18:11:42.195Z,30.60
2018-05-23T18:14:10.412Z,30.20
2018-05-23T18:16:37.940Z,30.20
2018-05-23T18:19:05.352Z,29.80
2018-05-23T18:21:32.812Z,29.70
2018-05-23T18:24:00.264Z,29.30
2018-05-23T18:26:27.727Z,29.20
2018-05-23T18:28:55.948Z,29.10
2018-05-23T18:31:23.406Z,29.10
2018-05-23T18:33:50.880Z,29.00
2018-05-23T18:36:18.345Z,29.00
2018-05-23T18:38:45.787Z,28.80
2018-05-23T18:41:14.082Z,28.60
2018-05-23T18:43:42.293Z,28.50
2018-05-23T18:46:09.763Z,28.50
2018-05-23T18:48:37.234Z,28.30
2018-05-23T18:51:04.691Z,28.20
2018-05-23T18:53:32.161Z,28.20
2018-05-23T18:55:59.603Z,28.10
2018-05-23T18:58:27.835Z,28.00
2018-05-23T19:00:55.272Z,27.90
2018-05-23T19:03:23.522Z,27.80
2018-05-23T19:05:50.982Z,27.80
2018-05-23T19:08:18.442Z,27.70
2018-05-23T19:10:45.887Z,27.60
2018-05-23T19:13:13.358Z,27.50
2018-05-23T19:15:40.804Z,27.40
2018-05-23T19:18:09.029Z,27.20
2018-05-23T19:20:36.499Z,27.20
2018-05-23T19:23:03.947Z,27.10
2018-05-23T19:25:31.392Z,27.00
2018-05-23T19:27:59.636Z,26.80
2018-05-23T19:30:27.080Z,26.80
2018-05-23T19:32:54.552Z,26.70
2018-05-23T19:35:22.000Z,26.60
2018-05-23T19:37:49.448Z,26.50
2018-05-23T19:40:17.690Z,26.30
2018-05-23T19:42:45.163Z,26.30
2018-05-23T19:45:12.621Z,26.30
2018-05-23T19:47:40.079Z,26.10
2018-05-23T19:50:07.571Z,26.00
2018-05-23T19:52:35.094Z,25.90
2018-05-23T19:55:02.495Z,25.80
2018-05-23T19:57:29.963Z,25.70
2018-05-23T19:59:57.430Z,25.60
2018-05-23T20:02:24.896Z,25.50
2018-05-23T20:04:52.344Z,25.40
2018-05-23T20:07:20.591Z,25.30
2018-05-23T20:09:48.035Z,25.20
2018-05-23T20:12:15.510Z,25.20
2018-05-23T20:14:42.970Z,25.20
2018-05-23T20:17:10.427Z,25.10
2018-05-23T20:19:37.880Z,25.00
2018-05-23T20:22:06.117Z,24.90
2018-05-23T20:24:33.606Z,24.90
2018-05-23T20:27:01.058Z,24.80
2018-05-23T20:29:28.500Z,24.70
2018-05-23T20:31:55.961Z,24.60
2018-05-23T20:34:23.516Z,24.60
2018-05-23T20:36:51.747Z,24.50
2018-05-23T20:39:19.212Z,24.50
2018-05-23T20:41:46.664Z,24.40
2018-05-23T20:44:14.158Z,24.40
2018-05-23T20:46:41.636Z,24.30
2018-05-23T20:49:09.084Z,24.20
2018-05-23T20:51:36.554Z,24.20
2018-05-23T20:54:04.000Z,24.10
2018-05-23T20:56:32.223Z,24.00
2018-05-23T20:58:59.774Z,24.00
2018-05-23T21:01:27.135Z,24.00
2018-05-23T21:03:54.601Z,23.90
2018-05-23T21:06:22.064Z,23.80
2018-05-23T21:08:49.530Z,23.70
2018-05-23T21:11:17.744Z,23.60
2018-05-23T21:13:45.209Z,23.60
2018-05-23T21:16:12.649Z,23.50
2018-05-23T21:18:40.887Z,23.40
2018-05-23T21:21:08.354Z,23.40
2018-05-23T21:23:35.815Z,23.30
2018-05-23T21:26:03.288Z,23.30
2018-05-23T21:28:30.734Z,23.20
2018-05-23T21:30:58.177Z,23.10
2018-05-23T21:33:26.578Z,23.10
2018-05-23T21:35:54.819Z,23.10
2018-05-23T21:38:22.295Z,23.10
2018-05-23T21:40:49.733Z,23.00
2018-05-23T21:43:17.211Z,22.90
2018-05-23T21:45:44.653Z,22.90
2018-05-23T21:48:12.135Z,22.90
2018-05-23T21:50:39.601Z,22.90
2018-05-23T21:53:07.049Z,22.90
2018-05-23T21:55:35.268Z,22.80
2018-05-23T21:58:02.733Z,22.80
2018-05-23T22:00:30.188Z,22.80
2018-05-23T22:02:57.645Z,22.80
2018-05-23T22:05:25.872Z,22.80
2018-05-23T22:07:53.318Z,22.70
2018-05-23T22:10:20.770Z,22.70
2018-05-23T22:12:49.006Z,22.40
2018-05-23T22:15:16.458Z,22.40
2018-05-23T22:17:43.895Z,22.40
2018-05-23T22:20:12.127Z,22.20
2018-05-23T22:22:39.571Z,22.20
2018-05-23T22:25:07.042Z,22.10
2018-05-23T22:27:34.497Z,22.10
2018-05-23T22:30:02.734Z,22.10
2018-05-23T22:32:30.194Z,22.00
2018-05-23T22:34:57.640Z,22.00
2018-05-23T22:37:25.099Z,22.00
2018-05-23T22:39:52.548Z,21.90
2018-05-23T22:42:20.791Z,22.00
2018-05-23T22:44:48.224Z,21.90
2018-05-23T22:47:15.727Z,21.90
2018-05-23T22:49:43.202Z,22.00
2018-05-23T22:52:10.654Z,21.90
2018-05-23T22:54:38.120Z,21.90
2018-05-23T22:57:05.590Z,21.90
2018-05-23T22:59:33.051Z,21.80
2018-05-23T23:02:00.518Z,21.80
2018-05-23T23:04:27.978Z,21.70
2018-05-23T23:06:56.204Z,21.70
2018-05-23T23:09:23.673Z,21.60
2018-05-23T23:11:51.126Z,21.60
2018-05-23T23:14:18.590Z,21.60
2018-05-23T23:16:46.052Z,21.60
2018-05-23T23:19:13.498Z,21.50
2018-05-23T23:21:41.728Z,21.40
2018-05-23T23:24:09.176Z,21.40
2018-05-23T23:26:36.630Z,21.40
2018-05-23T23:29:04.866Z,21.30
2018-05-23T23:31:32.320Z,21.30
2018-05-23T23:33:59.773Z,21.30
2018-05-23T23:36:27.246Z,21.20
2018-05-23T23:38:54.695Z,21.20
2018-05-23T23:41:22.920Z,21.10
2018-05-23T23:43:50.364Z,21.10
2018-05-23T23:46:17.825Z,21.10
2018-05-23T23:48:46.055Z,21.00
2018-05-23T23:51:13.517Z,21.00
2018-05-23T23:53:40.968Z,20.90
2018-05-23T23:56:08.425Z,20.90
2018-05-23T23:58:35.877Z,20.90
